createdAt,value
2018-07-27T00:01:02.158Z,99.90
2018-07-27T00:03:30.998Z,99.90
2018-07-27T00:05:59.827Z,99.90
2018-07-27T00:08:28.766Z,99.90
2018-07-27T00:10:57.640Z,99.90
2018-07-27T00:13:27.434Z,99.90
2018-07-27T00:15:56.366Z,99.90
2018-07-27T00:18:25.254Z,99.90
2018-07-27T00:20:54.127Z,99.90
2018-07-27T00:23:23.014Z,99.90
2018-07-27T00:25:55.546Z,99.90
2018-07-27T00:28:24.342Z,99.90
2018-07-27T00:30:53.254Z,99.90
2018-07-27T00:33:23.204Z,99.90
2018-07-27T00:35:52.047Z,99.90
2018-07-27T00:38:25.874Z,99.90
2018-07-27T00:41:01.360Z,99.90
2018-07-27T00:43:30.222Z,99.90
2018-07-27T00:45:59.114Z,99.90
2018-07-27T00:48:28.003Z,99.90
2018-07-27T00:50:57.891Z,99.90
2018-07-27T00:53:32.211Z,99.90
2018-07-27T00:56:01.046Z,99.90
2018-07-27T00:58:31.910Z,99.90
2018-07-27T01:01:00.839Z,99.90
2018-07-27T01:03:39.670Z,99.90
2018-07-27T01:06:12.963Z,99.90
2018-07-27T01:08:46.990Z,99.90
2018-07-27T01:11:19.079Z,99.90
2018-07-27T01:13:49.966Z,99.90
2018-07-27T01:16:23.954Z,99.90
2018-07-27T01:18:53.803Z,99.90
2018-07-27T01:21:29.214Z,99.90
2018-07-27T01:24:05.150Z,99.90
2018-07-27T01:26:35.051Z,99.90
2018-07-27T01:31:37.350Z,99.90
2018-07-27T01:34:12.582Z,99.90
2018-07-27T01:36:41.374Z,99.90
2018-07-27T01:39:14.358Z,99.90
2018-07-27T01:41:45.158Z,99.90
2018-07-27T01:44:13.990Z,99.90
2018-07-27T01:46:43.838Z,99.90
2018-07-27T01:49:12.707Z,99.90
2018-07-27T01:51:47.864Z,99.90
2018-07-27T01:54:16.685Z,99.90
2018-07-27T01:57:03.966Z,99.90
2018-07-27T01:59:42.377Z,99.90
2018-07-27T02:02:13.197Z,99.90
2018-07-27T02:04:43.018Z,99.90
2018-07-27T02:07:16.273Z,99.90
2018-07-27T02:09:47.165Z,99.90
2018-07-27T02:12:17.070Z,99.90
2018-07-27T02:14:45.957Z,99.90
2018-07-27T02:17:17.785Z,99.90
2018-07-27T02:19:46.681Z,99.90
2018-07-27T02:22:15.649Z,99.90
2018-07-27T02:24:44.462Z,99.90
2018-07-27T02:27:15.354Z,99.90
2018-07-27T02:29:49.205Z,99.90
2018-07-27T02:32:18.020Z,99.90
2018-07-27T02:34:46.882Z,99.90
2018-07-27T02:37:16.798Z,99.90
2018-07-27T02:39:45.670Z,99.90
2018-07-27T02:42:16.508Z,99.90
2018-07-27T02:44:47.378Z,99.90
2018-07-27T02:47:16.290Z,99.90
2018-07-27T02:49:47.130Z,99.90
2018-07-27T02:52:17.938Z,99.90
2018-07-27T02:54:52.878Z,99.90
2018-07-27T02:57:27.822Z,99.90
2018-07-27T03:02:26.154Z,99.90
2018-07-27T03:04:57.078Z,99.90
2018-07-27T03:07:25.913Z,99.90
2018-07-27T03:09:54.845Z,99.90
2018-07-27T03:12:23.680Z,99.90
2018-07-27T03:14:52.501Z,99.90
2018-07-27T03:17:23.343Z,99.90
2018-07-27T03:19:53.253Z,99.90
2018-07-27T03:22:23.122Z,99.90
2018-07-27T03:24:51.959Z,99.90
2018-07-27T03:27:24.157Z,99.90
2018-07-27T03:29:53.030Z,99.90
2018-07-27T03:32:22.913Z,99.90
2018-07-27T03:34:52.810Z,99.90
2018-07-27T03:37:32.782Z,99.90
2018-07-27T03:40:15.190Z,99.90
2018-07-27T03:42:45.982Z,99.90
2018-07-27T03:45:21.462Z,99.90
2018-07-27T03:47:52.254Z,99.90
2018-07-27T03:50:26.693Z,99.90
2018-07-27T03:53:08.621Z,99.90
2018-07-27T03:55:37.438Z,99.90
2018-07-27T03:58:10.430Z,99.90
2018-07-27T04:00:58.733Z,99.90
2018-07-27T04:03:35.586Z,99.90
2018-07-27T04:06:10.098Z,99.90
2018-07-27T04:08:42.367Z,99.90
2018-07-27T04:11:16.166Z,99.90
2018-07-27T04:13:55.526Z,99.90
2018-07-27T04:16:24.372Z,99.90
2018-07-27T04:18:53.178Z,99.90
2018-07-27T04:21:32.202Z,99.90
2018-07-27T04:24:05.374Z,99.90
2018-07-27T04:26:37.450Z,99.90
2018-07-27T04:29:16.201Z,99.90
2018-07-27T04:31:49.454Z,99.90
2018-07-27T04:34:25.710Z,99.90
2018-07-27T04:37:02.226Z,99.90
2018-07-27T04:39:32.048Z,99.90
2018-07-27T04:42:02.850Z,99.90
2018-07-27T04:44:31.593Z,99.90
2018-07-27T04:47:01.474Z,99.90
2018-07-27T04:49:35.667Z,99.90
2018-07-27T04:52:14.211Z,99.90
2018-07-27T04:54:43.974Z,99.90
2018-07-27T04:57:18.493Z,99.90
2018-07-27T04:59:53.066Z,99.90
2018-07-27T05:02:21.953Z,99.90
2018-07-27T05:04:50.821Z,99.90
2018-07-27T05:07:29.761Z,99.90
2018-07-27T05:09:58.529Z,99.90
2018-07-27T05:12:28.337Z,99.90
2018-07-27T05:15:03.433Z,99.90
2018-07-27T05:17:32.266Z,99.90
2018-07-27T05:20:07.209Z,99.90
2018-07-27T05:25:19.720Z,99.90
2018-07-27T05:27:48.525Z,99.90
2018-07-27T05:32:46.779Z,99.90
2018-07-27T05:35:15.580Z,99.90
2018-07-27T05:37:45.400Z,99.90
2018-07-27T05:40:16.232Z,99.90
2018-07-27T05:42:45.136Z,98.70
2018-07-27T05:45:19.128Z,96.20
2018-07-27T05:47:47.928Z,92.20
2018-07-27T05:50:16.712Z,90.70
2018-07-27T05:52:45.533Z,89.30
2018-07-27T05:55:21.131Z,85.00
2018-07-27T05:57:53.089Z,81.30
2018-07-27T06:00:32.691Z,75.80
2018-07-27T06:03:14.126Z,76.40
2018-07-27T06:05:49.835Z,76.40
2018-07-27T06:08:25.523Z,76.50
2018-07-27T06:10:54.319Z,78.20
2018-07-27T06:13:25.247Z,80.20
2018-07-27T06:15:54.071Z,79.50
2018-07-27T06:18:29.639Z,80.30
2018-07-27T06:21:02.024Z,78.80
2018-07-27T06:23:30.724Z,79.30
2018-07-27T06:26:00.572Z,75.90
2018-07-27T06:28:36.528Z,74.50
2018-07-27T06:31:06.361Z,72.30
2018-07-27T06:33:39.911Z,73.30
2018-07-27T06:36:08.892Z,74.30
2018-07-27T06:38:39.756Z,75.90
2018-07-27T06:41:08.577Z,79.60
2018-07-27T06:46:13.306Z,83.10
2018-07-27T06:48:42.157Z,83.40
2018-07-27T06:51:11.978Z,84.80
2018-07-27T06:53:40.876Z,87.50
2018-07-27T06:56:10.621Z,87.40
2018-07-27T07:01:11.286Z,85.40
2018-07-27T07:06:25.550Z,85.00
2018-07-27T07:08:54.370Z,83.30
2018-07-27T07:11:35.014Z,82.50
2018-07-27T07:14:07.186Z,80.50
2018-07-27T07:16:37.546Z,80.00
2018-07-27T07:19:07.958Z,81.10
2018-07-27T07:21:40.283Z,81.30
2018-07-27T07:24:17.735Z,79.30
2018-07-27T07:26:52.808Z,75.90
2018-07-27T07:29:23.634Z,72.70
2018-07-27T07:32:05.061Z,73.20
2018-07-27T07:34:35.798Z,69.20
2018-07-27T07:37:07.634Z,68.00
2018-07-27T07:39:36.498Z,65.70
2018-07-27T07:42:06.322Z,64.30
2018-07-27T07:44:43.394Z,62.90
2018-07-27T07:49:48.098Z,62.00
2018-07-27T07:52:22.779Z,60.60
2018-07-27T07:54:51.690Z,58.30
2018-07-27T07:57:20.534Z,57.00
2018-07-27T07:59:49.306Z,56.60
2018-07-27T08:02:18.138Z,56.40
2018-07-27T08:04:47.074Z,52.80
2018-07-27T08:07:15.825Z,49.70
2018-07-27T08:09:44.803Z,48.90
2018-07-27T08:12:13.630Z,46.90
2018-07-27T08:14:43.362Z,45.00
2018-07-27T08:17:15.816Z,44.60
2018-07-27T08:19:52.106Z,44.20
2018-07-27T08:22:27.081Z,44.20
2018-07-27T08:25:11.242Z,44.30
2018-07-27T08:27:40.014Z,44.90
2018-07-27T08:30:13.217Z,42.70
2018-07-27T08:33:02.334Z,42.40
2018-07-27T08:35:37.714Z,43.40
2018-07-27T08:38:06.809Z,42.90
2018-07-27T08:40:35.638Z,43.20
2018-07-27T08:43:05.482Z,42.70
2018-07-27T08:45:42.024Z,42.70
2018-07-27T08:48:10.810Z,43.40
2018-07-27T08:50:42.802Z,43.40
2018-07-27T08:53:12.525Z,42.80
2018-07-27T08:55:42.298Z,41.70
2018-07-27T08:58:14.529Z,41.10
2018-07-27T09:00:53.354Z,39.90
2018-07-27T09:03:23.098Z,39.90
2018-07-27T09:05:59.078Z,38.00
2018-07-27T09:08:47.682Z,36.70
2018-07-27T09:11:20.497Z,34.80
2018-07-27T09:13:50.682Z,35.80
2018-07-27T09:16:25.365Z,35.60
2018-07-27T09:18:59.525Z,36.50
2018-07-27T09:21:50.770Z,34.90
2018-07-27T09:24:44.725Z,35.40
2018-07-27T09:27:14.349Z,36.10
2018-07-27T09:29:47.990Z,36.90
2018-07-27T09:32:16.757Z,37.90
2018-07-27T09:34:46.361Z,36.70
2018-07-27T09:37:15.174Z,37.50
2018-07-27T09:39:43.977Z,37.30
2018-07-27T09:42:13.846Z,36.20
2018-07-27T09:44:42.694Z,35.20
2018-07-27T09:47:15.320Z,34.10
2018-07-27T09:49:51.722Z,34.40
2018-07-27T09:52:20.561Z,34.50
2018-07-27T09:54:53.473Z,35.50
2018-07-27T09:57:23.274Z,34.30
2018-07-27T09:59:53.081Z,34.20
2018-07-27T10:02:21.924Z,34.20
2018-07-27T10:04:51.734Z,33.30
2018-07-27T10:07:33.130Z,33.30
2018-07-27T10:10:13.557Z,30.70
2018-07-27T10:12:42.436Z,32.40
2018-07-27T10:15:36.843Z,33.10
2018-07-27T10:18:10.409Z,34.70
2018-07-27T10:20:40.241Z,36.70
2018-07-27T10:23:15.193Z,37.40
2018-07-27T10:25:43.933Z,38.80
2018-07-27T10:28:12.777Z,39.20
2018-07-27T10:30:41.645Z,40.50
2018-07-27T10:33:11.385Z,38.90
2018-07-27T10:35:59.197Z,36.30
2018-07-27T10:38:29.975Z,36.60
2018-07-27T10:41:12.789Z,35.80
2018-07-27T10:43:44.841Z,37.70
2018-07-27T10:49:13.444Z,37.20
2018-07-27T10:51:46.161Z,37.60
2018-07-27T10:54:22.388Z,37.10
2018-07-27T10:56:55.897Z,35.40
2018-07-27T10:59:24.737Z,35.50
2018-07-27T11:01:53.493Z,35.00
2018-07-27T11:04:26.393Z,34.60
2018-07-27T11:07:13.444Z,34.30
2018-07-27T11:09:45.586Z,33.20
2018-07-27T11:12:14.349Z,32.70
2018-07-27T11:14:43.129Z,32.70
2018-07-27T11:17:14.013Z,32.60
2018-07-27T11:19:46.424Z,33.70
2018-07-27T11:22:15.257Z,34.20
2018-07-27T11:27:12.601Z,35.40
2018-07-27T11:29:47.064Z,36.00
2018-07-27T11:32:15.925Z,36.20
2018-07-27T11:34:51.605Z,35.30
2018-07-27T11:37:20.719Z,34.70
2018-07-27T11:39:55.081Z,35.00
2018-07-27T11:42:24.855Z,36.70
2018-07-27T11:44:59.168Z,38.70
2018-07-27T11:47:29.992Z,39.00
2018-07-27T11:49:58.782Z,39.40
2018-07-27T11:52:27.905Z,40.10
2018-07-27T11:55:03.349Z,40.40
2018-07-27T11:57:37.732Z,40.30
2018-07-27T12:00:12.148Z,39.90
2018-07-27T12:02:40.952Z,39.80
2018-07-27T12:05:13.176Z,41.00
2018-07-27T12:07:41.952Z,44.30
2018-07-27T12:10:14.243Z,47.00
2018-07-27T12:12:44.332Z,48.80
2018-07-27T12:15:13.292Z,47.50
2018-07-27T12:18:00.696Z,46.90
2018-07-27T12:20:29.568Z,48.30
2018-07-27T12:23:03.932Z,49.90
2018-07-27T12:25:39.972Z,50.70
2018-07-27T12:28:10.823Z,50.90
2018-07-27T12:30:39.672Z,50.10
2018-07-27T12:35:41.320Z,50.90
2018-07-27T12:38:13.345Z,51.00
2018-07-27T12:40:46.188Z,50.00
2018-07-27T12:43:17.000Z,49.40
2018-07-27T12:45:46.816Z,49.60
2018-07-27T12:48:18.772Z,49.80
2018-07-27T12:50:48.640Z,50.50
2018-07-27T12:53:20.684Z,50.80
2018-07-27T12:55:52.584Z,50.20
2018-07-27T12:58:21.395Z,49.50
2018-07-27T13:00:50.224Z,48.70
2018-07-27T13:03:28.613Z,48.50
2018-07-27T13:05:58.400Z,49.10
2018-07-27T13:08:28.175Z,50.10
2018-07-27T13:10:57.030Z,48.90
2018-07-27T13:13:26.860Z,47.70
2018-07-27T13:15:56.692Z,49.50
2018-07-27T13:18:26.434Z,49.30
2018-07-27T13:20:57.032Z,48.10
2018-07-27T13:23:25.972Z,47.60
2018-07-27T13:28:57.552Z,45.80
2018-07-27T13:32:01.001Z,44.00
2018-07-27T13:37:22.740Z,44.20
2018-07-27T13:39:58.393Z,45.20
2018-07-27T13:42:28.411Z,44.80
2018-07-27T13:44:58.324Z,44.80
2018-07-27T13:47:28.108Z,44.60
2018-07-27T13:50:00.021Z,44.40
2018-07-27T13:52:28.896Z,46.10
2018-07-27T13:54:58.656Z,45.30
2018-07-27T13:57:27.418Z,42.10
2018-07-27T13:59:59.404Z,41.10
2018-07-27T14:02:29.216Z,41.80
2018-07-27T14:05:07.029Z,41.30
2018-07-27T14:07:35.988Z,39.90
2018-07-27T14:10:05.116Z,38.60
2018-07-27T14:12:34.722Z,38.20
2018-07-27T14:15:04.528Z,38.00
2018-07-27T14:17:34.256Z,36.30
2018-07-27T14:20:03.140Z,35.60
2018-07-27T14:22:31.896Z,34.10
2018-07-27T14:25:05.324Z,33.40
2018-07-27T14:27:37.916Z,35.40
2018-07-27T14:30:07.276Z,32.90
2018-07-27T14:32:36.055Z,33.70
2018-07-27T14:35:05.551Z,36.80
2018-07-27T14:37:34.392Z,37.30
2018-07-27T14:40:04.575Z,36.90
2018-07-27T14:42:34.440Z,35.40
2018-07-27T14:45:03.246Z,34.70
2018-07-27T14:47:43.727Z,34.30
2018-07-27T14:50:13.507Z,34.80
2018-07-27T14:52:44.359Z,35.50
2018-07-27T14:55:12.996Z,33.50
2018-07-27T14:57:43.744Z,34.00
2018-07-27T15:00:12.479Z,32.30
2018-07-27T15:02:42.279Z,33.30
2018-07-27T15:05:11.068Z,35.20
2018-07-27T15:07:40.896Z,38.20
2018-07-27T15:10:09.664Z,36.60
2018-07-27T15:12:41.472Z,37.70
2018-07-27T15:17:42.880Z,37.90
2018-07-27T15:20:12.691Z,35.30
2018-07-27T15:22:41.476Z,33.80
2018-07-27T15:25:12.168Z,32.40
2018-07-27T15:27:46.076Z,33.60
2018-07-27T15:30:16.016Z,33.80
2018-07-27T15:32:47.080Z,33.20
2018-07-27T15:35:24.955Z,34.30
2018-07-27T15:38:00.168Z,33.60
2018-07-27T15:40:30.264Z,33.40
2018-07-27T15:42:59.125Z,34.60
2018-07-27T15:45:27.960Z,35.00
2018-07-27T15:47:57.772Z,34.50
2018-07-27T15:50:28.564Z,32.60
2018-07-27T15:53:05.392Z,32.40
2018-07-27T15:55:40.968Z,34.20
2018-07-27T16:00:41.838Z,34.80
2018-07-27T16:03:10.608Z,35.40
2018-07-27T16:05:39.440Z,36.10
2018-07-27T16:08:08.220Z,38.30
2018-07-27T16:10:37.939Z,38.80
2018-07-27T16:13:08.868Z,38.70
2018-07-27T16:15:38.703Z,39.20
2018-07-27T16:18:10.687Z,39.30
2018-07-27T16:20:39.564Z,38.50
2018-07-27T16:23:09.303Z,38.90
2018-07-27T16:25:40.104Z,37.80
2018-07-27T16:28:10.927Z,35.80
2018-07-27T16:30:40.741Z,35.70
2018-07-27T16:33:13.208Z,34.50
2018-07-27T16:35:45.995Z,32.50
2018-07-27T16:38:14.891Z,31.80
2018-07-27T16:40:50.248Z,29.90
2018-07-27T16:43:22.824Z,29.60
2018-07-27T16:45:53.564Z,29.30
2018-07-27T16:48:22.392Z,28.40
2018-07-27T16:50:57.228Z,27.70
2018-07-27T16:53:29.604Z,27.80
2018-07-27T16:55:58.415Z,27.40
2018-07-27T16:58:27.206Z,27.70
2018-07-27T17:01:02.684Z,28.20
2018-07-27T17:03:31.512Z,28.10
2018-07-27T17:06:05.380Z,27.50
2018-07-27T17:08:39.560Z,27.40
2018-07-27T17:11:08.396Z,28.00
2018-07-27T17:13:38.228Z,30.00
2018-07-27T17:16:12.040Z,29.60
2018-07-27T17:18:44.024Z,30.40
2018-07-27T17:21:12.802Z,31.00
2018-07-27T17:23:41.525Z,29.30
2018-07-27T17:26:12.371Z,30.00
2018-07-27T17:28:42.140Z,29.80
2018-07-27T17:31:16.468Z,29.40
2018-07-27T17:33:51.728Z,30.10
2018-07-27T17:36:24.164Z,30.00
2018-07-27T17:38:58.056Z,30.70
2018-07-27T17:41:30.867Z,31.10
2018-07-27T17:44:00.592Z,31.50
2018-07-27T17:46:29.364Z,32.60
2018-07-27T17:48:58.176Z,33.00
2018-07-27T17:51:30.264Z,34.40
2018-07-27T17:54:05.930Z,35.10
2018-07-27T17:56:35.799Z,36.10
2018-07-27T18:01:49.254Z,37.10
2018-07-27T18:04:26.040Z,37.80
2018-07-27T18:06:58.556Z,38.40
2018-07-27T18:09:41.220Z,38.50
2018-07-27T18:12:12.277Z,39.30
2018-07-27T18:14:43.052Z,39.90
2018-07-27T18:17:16.979Z,40.20
2018-07-27T18:19:46.787Z,40.60
2018-07-27T18:22:18.890Z,39.50
2018-07-27T18:27:28.038Z,40.60
2018-07-27T18:29:56.871Z,41.40
2018-07-27T18:32:27.743Z,42.30
2018-07-27T18:35:00.129Z,43.00
2018-07-27T18:37:30.271Z,44.70
2018-07-27T18:40:01.452Z,47.80
2018-07-27T18:42:31.376Z,49.40
2018-07-27T18:45:11.664Z,49.00
2018-07-27T18:47:40.571Z,49.40
2018-07-27T18:50:11.372Z,48.60
2018-07-27T18:55:09.935Z,52.10
2018-07-27T18:57:41.811Z,53.30
2018-07-27T19:00:11.603Z,53.60
2018-07-27T19:02:42.360Z,54.00
2018-07-27T19:05:11.159Z,53.70
2018-07-27T19:07:40.004Z,55.00
2018-07-27T19:10:12.183Z,57.00
2018-07-27T19:12:46.247Z,58.30
2018-07-27T19:15:16.083Z,58.70
2018-07-27T19:17:46.879Z,60.10
2018-07-27T19:20:16.887Z,59.40
2018-07-27T19:22:45.679Z,59.60
2018-07-27T19:25:15.667Z,59.40
2018-07-27T19:27:52.583Z,58.90
2018-07-27T19:30:21.382Z,59.40
2018-07-27T19:32:50.502Z,61.20
2018-07-27T19:35:21.326Z,61.30
2018-07-27T19:37:50.175Z,63.10
2018-07-27T19:40:19.943Z,67.50
2018-07-27T19:42:54.759Z,65.60
2018-07-27T19:45:27.611Z,65.00
2018-07-27T19:47:57.503Z,62.40
2018-07-27T19:50:29.299Z,60.40
2018-07-27T19:52:59.563Z,61.00
2018-07-27T19:55:29.903Z,61.90
2018-07-27T19:58:04.875Z,62.20
2018-07-27T20:03:12.047Z,63.90
2018-07-27T20:05:45.195Z,63.60
2018-07-27T20:08:18.270Z,63.40
2018-07-27T20:10:54.167Z,61.80
2018-07-27T20:13:27.096Z,63.60
2018-07-27T20:15:55.974Z,67.70
2018-07-27T20:18:30.707Z,71.70
2018-07-27T20:21:10.458Z,73.70
2018-07-27T20:23:39.375Z,76.30
2018-07-27T20:26:11.830Z,77.20
2018-07-27T20:28:42.667Z,77.30
2018-07-27T20:31:12.439Z,77.40
2018-07-27T20:33:41.215Z,79.50
2018-07-27T20:36:10.999Z,75.60
2018-07-27T20:38:41.863Z,75.30
2018-07-27T20:41:18.571Z,77.60
2018-07-27T20:43:48.431Z,78.90
2018-07-27T20:46:17.401Z,77.80
2018-07-27T20:48:48.606Z,78.50
2018-07-27T20:51:21.352Z,81.70
2018-07-27T20:53:51.183Z,84.90
2018-07-27T20:56:20.015Z,88.20
2018-07-27T20:58:48.987Z,89.50
2018-07-27T21:01:19.999Z,89.60
2018-07-27T21:03:49.771Z,89.60
2018-07-27T21:06:19.639Z,89.80
2018-07-27T21:08:52.328Z,88.50
2018-07-27T21:13:49.591Z,77.60
2018-07-27T21:16:18.385Z,77.60
2018-07-27T21:18:47.191Z,79.10
2018-07-27T21:21:17.399Z,81.40
2018-07-27T21:23:52.587Z,83.80
2018-07-27T21:26:22.519Z,84.50
2018-07-27T21:28:56.746Z,85.20
2018-07-27T21:31:30.895Z,85.30
2018-07-27T21:34:00.819Z,83.80
2018-07-27T21:36:30.126Z,84.70
2018-07-27T21:38:59.995Z,87.10
2018-07-27T21:41:28.875Z,90.80
2018-07-27T21:44:01.647Z,96.10
2018-07-27T21:46:30.535Z,98.50
2018-07-27T21:48:59.375Z,98.80
2018-07-27T21:51:28.335Z,95.00
2018-07-27T21:53:59.018Z,89.30
2018-07-27T21:56:27.930Z,81.50
2018-07-27T21:58:58.138Z,75.10
2018-07-27T22:01:31.150Z,70.20
2018-07-27T22:04:00.907Z,68.10
2018-07-27T22:06:30.850Z,67.00
2018-07-27T22:09:01.855Z,66.30
2018-07-27T22:11:30.754Z,66.00
2018-07-27T22:16:34.051Z,66.40
2018-07-27T22:19:02.919Z,67.00
2018-07-27T22:21:31.865Z,67.60
2018-07-27T22:24:00.803Z,67.70
2018-07-27T22:26:33.168Z,68.20
2018-07-27T22:29:12.299Z,68.70
2018-07-27T22:31:41.126Z,69.10
2018-07-27T22:34:12.883Z,70.00
2018-07-27T22:36:43.903Z,71.10
2018-07-27T22:39:16.346Z,72.40
2018-07-27T22:41:45.470Z,73.80
2018-07-27T22:44:15.347Z,76.00
2018-07-27T22:46:46.338Z,78.70
2018-07-27T22:49:15.194Z,81.30
2018-07-27T22:51:46.055Z,83.20
2018-07-27T22:54:14.870Z,85.30
2018-07-27T22:56:43.810Z,84.70
2018-07-27T22:59:15.787Z,84.80
2018-07-27T23:01:46.662Z,84.60
2018-07-27T23:04:15.574Z,86.30
2018-07-27T23:06:44.489Z,87.90
2018-07-27T23:09:13.322Z,89.70
2018-07-27T23:11:42.128Z,90.80
2018-07-27T23:14:11.022Z,91.70
2018-07-27T23:16:39.798Z,92.20
2018-07-27T23:19:09.666Z,92.90
2018-07-27T23:21:39.534Z,93.00
2018-07-27T23:24:09.372Z,92.30
2018-07-27T23:26:38.207Z,90.60
2018-07-27T23:29:08.102Z,88.60
2018-07-27T23:31:37.983Z,86.90
2018-07-27T23:34:09.890Z,87.00
2018-07-27T23:36:43.070Z,87.10
2018-07-27T23:39:16.115Z,87.80
2018-07-27T23:41:48.771Z,89.60
2018-07-27T23:44:17.583Z,90.50
2018-07-27T23:46:46.488Z,91.50
2018-07-27T23:49:16.351Z,91.70
2018-07-27T23:51:45.231Z,92.30
2018-07-27T23:56:44.575Z,92.90
2018-07-27T23:59:13.566Z,93.50
